Airfield :
LOGIN :

Register | Disclaimer

   EN    FR    IT 

 










Legend :    VFR   Marginal VFR   IFR   Intensive IFR   Very Intensive IFR
Visi :
Ceiling :
>= 8 km
>= 3000ft
5 to 8 km
1000 to 3000 ft
1500m to 5 km
500 to 1000 ft
800 to 1500m
200 to 500 ft
< 800m
< 200 ft
Symbols :   Thunderstorms  Fog  Heavy snow  Heavy precipitations  Wind > 20 kt
SIGMETs :     Misc.  Thunderstorms  Icing  Turbulence  Mountain Waves  Volcanic Ashes







- Airport Elevation : 963 ft
- IATA code : TGM


LRTM - Transilvania Târgu Mureş Int.

CURRENT METAR :
  • 240030Z AUTO 11004KT 9000 NCD M01/M05 Q1023

EXPIRED METARs :
  • 240000Z AUTO 09005KT 9999 NCD M00/M05 Q1024
  • 232330Z AUTO 09002KT 060V120 9999 NCD M00/M05 Q1024
  • 232300Z AUTO 10004KT 9000 NCD M00/M05 Q1024
  • 232230Z AUTO 09006KT 9999 NCD 01/M04 Q1024
  • 232200Z AUTO 08003KT 040V100 9999 NCD 02/M04 Q1024

TAF TAF LRTM
Valid from the 23 at 18:00 until the 24 at 03:00 UTC


231700Z 2318/2403 29006KT CAVOK
No reported NOTAMs for that airfield.



MET'MAP, your aeronautical weather chart ! - Copyright ORBIFLY December 2007 - Disclaimer

ORBIFLY MET'MAP TEAM :

Programming & Development : Alexandra Zaïnal
Concept & Development : Baudouin d'Aumeries
Co-Development & Prog : Marc-Olivier Méhu
Technical & hardware support : Manuel Goepfert

Contact : metmap@orbifly.com




SOURCES & CREDITS :

   NOAA